sensor_id;sensor_type;location;lat;lon;timestamp;pressure;altitude;pressure_sealevel;temperature;humidity
64827;BME280;51265;53.972;12.286;2023-10-31T00:00:11;98911.66;;;9.11;100.00
64827;BME280;51265;53.972;12.286;2023-10-31T00:02:38;98911.66;;;9.11;100.00
64827;BME280;51265;53.972;12.286;2023-10-31T00:05:05;98916.19;;;9.07;100.00
64827;BME280;51265;53.972;12.286;2023-10-31T00:07:32;98911.06;;;9.05;100.00
64827;BME280;51265;53.972;12.286;2023-10-31T00:09:58;98916.53;;;9.05;100.00
64827;BME280;51265;53.972;12.286;2023-10-31T00:12:24;98916.50;;;9.14;100.00
64827;BME280;51265;53.972;12.286;2023-10-31T00:14:50;98909.22;;;9.18;100.00
64827;BME280;51265;53.972;12.286;2023-10-31T00:17:17;98911.97;;;9.18;100.00
64827;BME280;51265;53.972;12.286;2023-10-31T00:19:43;98908.50;;;9.30;100.00
64827;BME280;51265;53.972;12.286;2023-10-31T00:22:10;98900.25;;;9.30;100.00
64827;BME280;51265;53.972;12.286;2023-10-31T00:24:36;98895.22;;;9.32;100.00
64827;BME280;51265;53.972;12.286;2023-10-31T00:27:03;98893.56;;;9.39;100.00
64827;BME280;51265;53.972;12.286;2023-10-31T00:29:29;98890.16;;;9.42;100.00
64827;BME280;51265;53.972;12.286;2023-10-31T00:31:56;98881.56;;;9.44;100.00
64827;BME280;51265;53.972;12.286;2023-10-31T00:34:22;98880.13;;;9.46;100.00
64827;BME280;51265;53.972;12.286;2023-10-31T00:36:49;98873.69;;;9.42;100.00
64827;BME280;51265;53.972;12.286;2023-10-31T00:39:15;98860.81;;;9.34;100.00
64827;BME280;51265;53.972;12.286;2023-10-31T00:41:45;98851.81;;;9.25;100.00
64827;BME280;51265;53.972;12.286;2023-10-31T00:44:12;98851.53;;;9.18;100.00
64827;BME280;51265;53.972;12.286;2023-10-31T00:46:39;98842.34;;;9.14;100.00
64827;BME280;51265;53.972;12.286;2023-10-31T00:49:05;98856.72;;;9.11;100.00
64827;BME280;51265;53.972;12.286;2023-10-31T00:51:32;98835.44;;;9.08;100.00
64827;BME280;51265;53.972;12.286;2023-10-31T00:53:58;98842.06;;;9.07;100.00
64827;BME280;51265;53.972;12.286;2023-10-31T00:56:24;98836.56;;;9.07;100.00
64827;BME280;51265;53.972;12.286;2023-10-31T00:58:51;98824.31;;;9.04;100.00
64827;BME280;51265;53.972;12.286;2023-10-31T01:01:17;98825.78;;;9.02;100.00
64827;BME280;51265;53.972;12.286;2023-10-31T01:03:44;98833.56;;;9.00;100.00
64827;BME280;51265;53.972;12.286;2023-10-31T01:06:10;98812.03;;;9.02;100.00
64827;BME280;51265;53.972;12.286;2023-10-31T01:08:36;98818.69;;;9.01;100.00
64827;BME280;51265;53.972;12.286;2023-10-31T01:11:02;98812.84;;;9.02;100.00
64827;BME280;51265;53.972;12.286;2023-10-31T01:13:29;98820.28;;;9.02;100.00
64827;BME280;51265;53.972;12.286;2023-10-31T01:15:55;98817.06;;;9.00;100.00
64827;BME280;51265;53.972;12.286;2023-10-31T01:18:22;98806.09;;;9.00;100.00
64827;BME280;51265;53.972;12.286;2023-10-31T01:20:48;98803.34;;;9.00;100.00
64827;BME280;51265;53.972;12.286;2023-10-31T01:23:14;98803.66;;;8.98;100.00
64827;BME280;51265;53.972;12.286;2023-10-31T01:25:40;98804.00;;;8.96;100.00
64827;BME280;51265;53.972;12.286;2023-10-31T01:28:06;98810.44;;;9.01;100.00
64827;BME280;51265;53.972;12.286;2023-10-31T01:30:32;98812.53;;;9.04;100.00
64827;BME280;51265;53.972;12.286;2023-10-31T01:32:59;98807.13;;;9.16;100.00
64827;BME280;51265;53.972;12.286;2023-10-31T01:35:25;98810.13;;;9.23;100.00
64827;BME280;51265;53.972;12.286;2023-10-31T01:37:51;98804.31;;;9.25;100.00
64827;BME280;51265;53.972;12.286;2023-10-31T01:40:18;98801.56;;;9.25;100.00
64827;BME280;51265;53.972;12.286;2023-10-31T01:42:44;98798.03;;;9.24;100.00
64827;BME280;51265;53.972;12.286;2023-10-31T01:45:10;98796.06;;;9.25;100.00
64827;BME280;51265;53.972;12.286;2023-10-31T01:47:36;98795.53;;;9.31;100.00
64827;BME280;51265;53.972;12.286;2023-10-31T01:50:03;98797.41;;;9.18;100.00
64827;BME280;51265;53.972;12.286;2023-10-31T01:52:30;98786.53;;;9.22;100.00
64827;BME280;51265;53.972;12.286;2023-10-31T01:54:59;98787.69;;;9.21;100.00
64827;BME280;51265;53.972;12.286;2023-10-31T01:57:25;98778.50;;;9.17;100.00
64827;BME280;51265;53.972;12.286;2023-10-31T01:59:51;98762.69;;;9.14;100.00
64827;BME280;51265;53.972;12.286;2023-10-31T02:02:21;98775.41;;;9.18;100.00
64827;BME280;51265;53.972;12.286;2023-10-31T02:04:50;98772.22;;;9.16;100.00
64827;BME280;51265;53.972;12.286;2023-10-31T02:07:16;98766.31;;;9.27;100.00
64827;BME280;51265;53.972;12.286;2023-10-31T02:09:42;98773.53;;;9.31;100.00
64827;BME280;51265;53.972;12.286;2023-10-31T02:12:09;98766.97;;;9.23;100.00
64827;BME280;51265;53.972;12.286;2023-10-31T02:14:35;98758.41;;;9.25;100.00
64827;BME280;51265;53.972;12.286;2023-10-31T02:17:02;98762.41;;;9.28;100.00
64827;BME280;51265;53.972;12.286;2023-10-31T02:19:28;98758.81;;;9.15;100.00
64827;BME280;51265;53.972;12.286;2023-10-31T02:21:54;98748.50;;;9.12;100.00
64827;BME280;51265;53.972;12.286;2023-10-31T02:24:20;98741.72;;;9.09;100.00
64827;BME280;51265;53.972;12.286;2023-10-31T02:26:46;98737.38;;;9.08;100.00
64827;BME280;51265;53.972;12.286;2023-10-31T02:29:13;98733.84;;;9.08;100.00
64827;BME280;51265;53.972;12.286;2023-10-31T02:43:38;98729.88;;;8.96;100.00
64827;BME280;51265;53.972;12.286;2023-10-31T02:46:05;98723.09;;;8.94;100.00
64827;BME280;51265;53.972;12.286;2023-10-31T02:48:31;98724.09;;;8.89;100.00
64827;BME280;51265;53.972;12.286;2023-10-31T02:51:04;98720.91;;;8.87;100.00
64827;BME280;51265;53.972;12.286;2023-10-31T02:53:31;98723.44;;;8.92;100.00
64827;BME280;51265;53.972;12.286;2023-10-31T02:55:57;98716.50;;;8.95;100.00
64827;BME280;51265;53.972;12.286;2023-10-31T02:58:23;98716.59;;;8.98;100.00
64827;BME280;51265;53.972;12.286;2023-10-31T03:00:49;98711.94;;;8.99;100.00
64827;BME280;51265;53.972;12.286;2023-10-31T03:03:16;98703.22;;;8.97;100.00
64827;BME280;51265;53.972;12.286;2023-10-31T03:05:42;98705.81;;;8.93;100.00
64827;BME280;51265;53.972;12.286;2023-10-31T03:08:10;98700.81;;;8.95;100.00
64827;BME280;51265;53.972;12.286;2023-10-31T03:10:41;98704.03;;;8.97;100.00
64827;BME280;51265;53.972;12.286;2023-10-31T03:13:07;98702.56;;;9.00;100.00
64827;BME280;51265;53.972;12.286;2023-10-31T03:15:33;98708.25;;;8.95;100.00
64827;BME280;51265;53.972;12.286;2023-10-31T03:18:00;98707.91;;;8.96;100.00
64827;BME280;51265;53.972;12.286;2023-10-31T03:20:26;98702.41;;;8.96;100.00
64827;BME280;51265;53.972;12.286;2023-10-31T03:22:54;98700.34;;;8.93;100.00
64827;BME280;51265;53.972;12.286;2023-10-31T03:25:20;98698.53;;;8.97;100.00
64827;BME280;51265;53.972;12.286;2023-10-31T03:27:47;98696.41;;;9.03;100.00
64827;BME280;51265;53.972;12.286;2023-10-31T03:30:13;98698.53;;;8.97;100.00
64827;BME280;51265;53.972;12.286;2023-10-31T03:32:39;98697.72;;;8.97;100.00
64827;BME280;51265;53.972;12.286;2023-10-31T03:35:06;98696.56;;;8.98;100.00
64827;BME280;51265;53.972;12.286;2023-10-31T03:37:32;98699.31;;;8.98;100.00
64827;BME280;51265;53.972;12.286;2023-10-31T03:39:58;98693.84;;;8.98;100.00
64827;BME280;51265;53.972;12.286;2023-10-31T03:42:24;98696.25;;;9.00;100.00
64827;BME280;51265;53.972;12.286;2023-10-31T03:44:51;98698.66;;;9.01;100.00
64827;BME280;51265;53.972;12.286;2023-10-31T03:47:17;98699.94;;;9.04;100.00
64827;BME280;51265;53.972;12.286;2023-10-31T03:49:43;98705.22;;;9.09;100.00
64827;BME280;51265;53.972;12.286;2023-10-31T03:52:09;98694.25;;;9.09;100.00
64827;BME280;51265;53.972;12.286;2023-10-31T03:54:36;98690.34;;;9.10;100.00
64827;BME280;51265;53.972;12.286;2023-10-31T03:57:02;98688.41;;;9.10;100.00
64827;BME280;51265;53.972;12.286;2023-10-31T03:59:28;98688.09;;;9.12;100.00
64827;BME280;51265;53.972;12.286;2023-10-31T04:01:54;98692.88;;;9.15;100.00
64827;BME280;51265;53.972;12.286;2023-10-31T04:04:21;98681.25;;;9.18;100.00
64827;BME280;51265;53.972;12.286;2023-10-31T04:06:47;98675.34;;;9.28;100.00
64827;BME280;51265;53.972;12.286;2023-10-31T04:09:13;98667.09;;;9.28;100.00
64827;BME280;51265;53.972;12.286;2023-10-31T04:11:39;98676.47;;;9.27;100.00
64827;BME280;51265;53.972;12.286;2023-10-31T04:14:07;98667.63;;;9.21;100.00
64827;BME280;51265;53.972;12.286;2023-10-31T04:16:38;98669.59;;;9.21;100.00
64827;BME280;51265;53.972;12.286;2023-10-31T04:21:40;98654.84;;;9.26;100.00
64827;BME280;51265;53.972;12.286;2023-10-31T04:24:06;98651.75;;;9.27;100.00
64827;BME280;51265;53.972;12.286;2023-10-31T04:26:33;98643.50;;;9.27;100.00
64827;BME280;51265;53.972;12.286;2023-10-31T04:28:59;98638.50;;;9.29;100.00
64827;BME280;51265;53.972;12.286;2023-10-31T04:31:25;98627.94;;;9.31;100.00
64827;BME280;51265;53.972;12.286;2023-10-31T04:33:52;98631.19;;;9.33;100.00
64827;BME280;51265;53.972;12.286;2023-10-31T04:36:18;98622.94;;;9.33;100.00
64827;BME280;51265;53.972;12.286;2023-10-31T04:38:46;98618.25;;;9.34;100.00
64827;BME280;51265;53.972;12.286;2023-10-31T04:41:12;98622.59;;;9.35;100.00
64827;BME280;51265;53.972;12.286;2023-10-31T04:43:39;98619.97;;;9.38;100.00
64827;BME280;51265;53.972;12.286;2023-10-31T04:46:07;98615.28;;;9.39;100.00
64827;BME280;51265;53.972;12.286;2023-10-31T04:48:34;98602.19;;;9.36;100.00
64827;BME280;51265;53.972;12.286;2023-10-31T04:51:00;98601.09;;;9.37;100.00
64827;BME280;51265;53.972;12.286;2023-10-31T04:53:26;98594.44;;;9.38;100.00
64827;BME280;51265;53.972;12.286;2023-10-31T04:55:53;98600.16;;;9.33;100.00
64827;BME280;51265;53.972;12.286;2023-10-31T04:58:19;98604.38;;;9.30;100.00
64827;BME280;51265;53.972;12.286;2023-10-31T05:00:46;98605.53;;;9.29;100.00
64827;BME280;51265;53.972;12.286;2023-10-31T05:03:13;98600.03;;;9.29;100.00
64827;BME280;51265;53.972;12.286;2023-10-31T05:05:39;98596.13;;;9.30;100.00
64827;BME280;51265;53.972;12.286;2023-10-31T05:08:05;98581.94;;;9.28;100.00
64827;BME280;51265;53.972;12.286;2023-10-31T05:10:32;98587.44;;;9.28;100.00
64827;BME280;51265;53.972;12.286;2023-10-31T05:13:00;98589.38;;;9.28;100.00
64827;BME280;51265;53.972;12.286;2023-10-31T05:15:27;98585.81;;;9.27;100.00
64827;BME280;51265;53.972;12.286;2023-10-31T05:17:53;98592.94;;;9.28;100.00
64827;BME280;51265;53.972;12.286;2023-10-31T05:20:20;98586.75;;;9.31;100.00
64827;BME280;51265;53.972;12.286;2023-10-31T05:22:47;98582.88;;;9.32;100.00
64827;BME280;51265;53.972;12.286;2023-10-31T05:25:13;98580.13;;;9.32;100.00
64827;BME280;51265;53.972;12.286;2023-10-31T05:27:39;98580.13;;;9.32;100.00
64827;BME280;51265;53.972;12.286;2023-10-31T05:30:06;98588.38;;;9.32;100.00
64827;BME280;51265;53.972;12.286;2023-10-31T05:32:32;98582.88;;;9.32;100.00
64827;BME280;51265;53.972;12.286;2023-10-31T05:34:59;98576.22;;;9.33;100.00
64827;BME280;51265;53.972;12.286;2023-10-31T05:37:25;98580.22;;;9.36;100.00
64827;BME280;51265;53.972;12.286;2023-10-31T05:39:52;98582.19;;;9.35;100.00
64827;BME280;51265;53.972;12.286;2023-10-31T05:42:19;98581.03;;;9.36;100.00
64827;BME280;51265;53.972;12.286;2023-10-31T05:44:46;98575.53;;;9.36;100.00
64827;BME280;51265;53.972;12.286;2023-10-31T05:47:13;98565.69;;;9.35;100.00
64827;BME280;51265;53.972;12.286;2023-10-31T05:49:39;98562.94;;;9.35;100.00
64827;BME280;51265;53.972;12.286;2023-10-31T05:52:05;98564.53;;;9.36;100.00
64827;BME280;51265;53.972;12.286;2023-10-31T05:54:31;98566.50;;;9.36;100.00
64827;BME280;51265;53.972;12.286;2023-10-31T05:56:58;98565.00;;;9.38;100.00
64827;BME280;51265;53.972;12.286;2023-10-31T05:59:24;98557.94;;;9.37;100.00
64827;BME280;51265;53.972;12.286;2023-10-31T06:01:51;98546.94;;;9.37;100.00
64827;BME280;51265;53.972;12.286;2023-10-31T06:04:17;98549.22;;;9.35;100.00
64827;BME280;51265;53.972;12.286;2023-10-31T06:06:43;98551.50;;;9.33;100.00
64827;BME280;51265;53.972;12.286;2023-10-31T06:09:09;98555.41;;;9.32;100.00
64827;BME280;51265;53.972;12.286;2023-10-31T06:11:40;98557.00;;;9.33;100.00
64827;BME280;51265;53.972;12.286;2023-10-31T06:14:06;98561.34;;;9.34;100.00
64827;BME280;51265;53.972;12.286;2023-10-31T06:16:33;98562.16;;;9.35;100.00
64827;BME280;51265;53.972;12.286;2023-10-31T06:18:59;98562.16;;;9.35;100.00
64827;BME280;51265;53.972;12.286;2023-10-31T06:21:25;98557.13;;;9.37;100.00
64827;BME280;51265;53.972;12.286;2023-10-31T06:23:52;98563.41;;;9.37;100.00
64827;BME280;51265;53.972;12.286;2023-10-31T06:26:18;98565.00;;;9.38;100.00
64827;BME280;51265;53.972;12.286;2023-10-31T06:28:44;98568.22;;;9.40;100.00
64827;BME280;51265;53.972;12.286;2023-10-31T06:31:10;98567.53;;;9.43;100.00
64827;BME280;51265;53.972;12.286;2023-10-31T06:33:37;98571.22;;;9.47;100.00
64827;BME280;51265;53.972;12.286;2023-10-31T06:36:03;98571.81;;;9.53;100.00
64827;BME280;51265;53.972;12.286;2023-10-31T06:38:30;98567.69;;;9.59;100.00
64827;BME280;51265;53.972;12.286;2023-10-31T06:40:56;98568.25;;;9.65;100.00
64827;BME280;51265;53.972;12.286;2023-10-31T06:43:23;98566.88;;;9.71;100.00
64827;BME280;51265;53.972;12.286;2023-10-31T06:45:49;98572.63;;;9.78;100.00
64827;BME280;51265;53.972;12.286;2023-10-31T06:48:15;98566.53;;;9.85;100.00
64827;BME280;51265;53.972;12.286;2023-10-31T06:50:42;98569.06;;;9.90;100.00
64827;BME280;51265;53.972;12.286;2023-10-31T06:53:08;98566.09;;;9.95;100.00
64827;BME280;51265;53.972;12.286;2023-10-31T06:55:34;98567.34;;;9.97;100.00
64827;BME280;51265;53.972;12.286;2023-10-31T06:58:01;98565.50;;;10.02;100.00
64827;BME280;51265;53.972;12.286;2023-10-31T07:00:27;98564.47;;;10.06;100.00
64827;BME280;51265;53.972;12.286;2023-10-31T07:02:53;98561.38;;;10.08;100.00
64827;BME280;51265;53.972;12.286;2023-10-31T07:05:19;98563.44;;;10.11;100.00
64827;BME280;51265;53.972;12.286;2023-10-31T07:07:49;98559.75;;;10.19;100.00
64827;BME280;51265;53.972;12.286;2023-10-31T07:10:15;98571.66;;;10.23;100.00
64827;BME280;51265;53.972;12.286;2023-10-31T07:12:41;98566.41;;;10.30;100.00
64827;BME280;51265;53.972;12.286;2023-10-31T07:15:08;98563.41;;;10.35;100.00
64827;BME280;51265;53.972;12.286;2023-10-31T07:17:34;98564.00;;;10.41;100.00
64827;BME280;51265;53.972;12.286;2023-10-31T07:20:00;98570.97;;;10.51;100.00
64827;BME280;51265;53.972;12.286;2023-10-31T07:22:26;98562.00;;;10.54;100.00
64827;BME280;51265;53.972;12.286;2023-10-31T07:24:53;98568.75;;;10.56;100.00
64827;BME280;51265;53.972;12.286;2023-10-31T07:27:19;98560.16;;;10.58;100.00
64827;BME280;51265;53.972;12.286;2023-10-31T07:29:45;98557.16;;;10.63;100.00
64827;BME280;51265;53.972;12.286;2023-10-31T07:32:12;98561.25;;;10.69;100.00
64827;BME280;51265;53.972;12.286;2023-10-31T07:34:42;98553.47;;;10.71;100.00
64827;BME280;51265;53.972;12.286;2023-10-31T07:37:08;98560.31;;;10.77;100.00
64827;BME280;51265;53.972;12.286;2023-10-31T07:39:34;98560.53;;;10.84;100.00
64827;BME280;51265;53.972;12.286;2023-10-31T07:42:01;98561.06;;;10.90;100.00
64827;BME280;51265;53.972;12.286;2023-10-31T07:44:27;98563.56;;;10.95;100.00
64827;BME280;51265;53.972;12.286;2023-10-31T07:46:54;98560.47;;;10.96;100.00
64827;BME280;51265;53.972;12.286;2023-10-31T07:49:20;98567.69;;;11.01;100.00
64827;BME280;51265;53.972;12.286;2023-10-31T07:51:48;98571.69;;;11.04;100.00
64827;BME280;51265;53.972;12.286;2023-10-31T07:54:15;98570.06;;;11.03;100.00
64827;BME280;51265;53.972;12.286;2023-10-31T07:56:42;98571.22;;;11.02;100.00
64827;BME280;51265;53.972;12.286;2023-10-31T07:59:08;98570.78;;;11.00;100.00
64827;BME280;51265;53.972;12.286;2023-10-31T08:01:35;98570.69;;;10.96;100.00
64827;BME280;51265;53.972;12.286;2023-10-31T08:04:01;98569.91;;;10.95;100.00
64827;BME280;51265;53.972;12.286;2023-10-31T08:06:27;98563.16;;;11.09;100.00
64827;BME280;51265;53.972;12.286;2023-10-31T08:08:54;98569.69;;;11.16;100.00
64827;BME280;51265;53.972;12.286;2023-10-31T08:11:20;98562.44;;;11.12;100.00
64827;BME280;51265;53.972;12.286;2023-10-31T08:13:47;98568.56;;;11.05;100.00
64827;BME280;51265;53.972;12.286;2023-10-31T08:16:18;98564.38;;;10.95;100.00
64827;BME280;51265;53.972;12.286;2023-10-31T08:18:46;98562.53;;;11.00;100.00
64827;BME280;51265;53.972;12.286;2023-10-31T08:21:12;98571.75;;;11.07;100.00
64827;BME280;51265;53.972;12.286;2023-10-31T08:23:38;98574.09;;;11.05;100.00
64827;BME280;51265;53.972;12.286;2023-10-31T08:26:05;98565.66;;;11.14;100.00
64827;BME280;51265;53.972;12.286;2023-10-31T08:28:32;98571.88;;;11.11;100.00
64827;BME280;51265;53.972;12.286;2023-10-31T08:30:59;98578.97;;;11.12;100.00
64827;BME280;51265;53.972;12.286;2023-10-31T08:33:25;98578.53;;;11.10;100.00
64827;BME280;51265;53.972;12.286;2023-10-31T08:35:52;98579.81;;;11.12;100.00
64827;BME280;51265;53.972;12.286;2023-10-31T08:38:18;98590.88;;;11.16;100.00
64827;BME280;51265;53.972;12.286;2023-10-31T08:40:44;98590.19;;;11.19;100.00
64827;BME280;51265;53.972;12.286;2023-10-31T08:43:10;98585.59;;;11.23;100.00
64827;BME280;51265;53.972;12.286;2023-10-31T08:45:36;98591.28;;;11.30;100.00
64827;BME280;51265;53.972;12.286;2023-10-31T08:48:03;98592.09;;;11.31;100.00
64827;BME280;51265;53.972;12.286;2023-10-31T08:50:30;98585.88;;;11.34;100.00
64827;BME280;51265;53.972;12.286;2023-10-31T08:52:56;98592.19;;;11.34;100.00
64827;BME280;51265;53.972;12.286;2023-10-31T08:55:23;98593.97;;;11.42;100.00
64827;BME280;51265;53.972;12.286;2023-10-31T08:57:49;98592.38;;;11.41;100.00
64827;BME280;51265;53.972;12.286;2023-10-31T09:00:16;98597.91;;;11.41;100.00
64827;BME280;51265;53.972;12.286;2023-10-31T09:02:42;98593.78;;;11.35;100.00
64827;BME280;51265;53.972;12.286;2023-10-31T09:05:09;98600.25;;;11.27;100.00
64827;BME280;51265;53.972;12.286;2023-10-31T09:07:35;98601.41;;;11.26;100.00
64827;BME280;51265;53.972;12.286;2023-10-31T09:10:01;98595.22;;;11.29;100.00
64827;BME280;51265;53.972;12.286;2023-10-31T09:12:31;98597.31;;;11.20;100.00
64827;BME280;51265;53.972;12.286;2023-10-31T09:14:57;98598.72;;;11.14;100.00
64827;BME280;51265;53.972;12.286;2023-10-31T09:17:24;98604.34;;;11.17;100.00
64827;BME280;51265;53.972;12.286;2023-10-31T09:19:51;98609.22;;;11.24;100.00
64827;BME280;51265;53.972;12.286;2023-10-31T09:22:17;98611.34;;;11.15;100.00
64827;BME280;51265;53.972;12.286;2023-10-31T09:24:43;98610.63;;;11.18;100.00
64827;BME280;51265;53.972;12.286;2023-10-31T09:27:09;98620.06;;;11.17;100.00
64827;BME280;51265;53.972;12.286;2023-10-31T09:29:36;98620.56;;;11.07;100.00
64827;BME280;51265;53.972;12.286;2023-10-31T09:32:02;98621.72;;;11.06;100.00
64827;BME280;51265;53.972;12.286;2023-10-31T09:34:29;98620.13;;;11.05;100.00
64827;BME280;51265;53.972;12.286;2023-10-31T09:36:55;98616.47;;;11.01;100.00
64827;BME280;51265;53.972;12.286;2023-10-31T09:39:23;98622.81;;;10.89;100.00
64827;BME280;51265;53.972;12.286;2023-10-31T09:41:49;98622.38;;;10.87;100.00
64827;BME280;51265;53.972;12.286;2023-10-31T09:44:15;98611.25;;;10.83;100.00
64827;BME280;51265;53.972;12.286;2023-10-31T09:46:42;98609.88;;;10.77;100.00
64827;BME280;51265;53.972;12.286;2023-10-31T09:49:09;98614.59;;;10.77;100.00
64827;BME280;51265;53.972;12.286;2023-10-31T09:51:37;98618.81;;;10.74;100.00
64827;BME280;51265;53.972;12.286;2023-10-31T09:54:05;98614.78;;;10.84;100.00
64827;BME280;51265;53.972;12.286;2023-10-31T09:56:33;98618.34;;;10.84;100.00
64827;BME280;51265;53.972;12.286;2023-10-31T09:59:01;98612.81;;;10.96;100.00
64827;BME280;51265;53.972;12.286;2023-10-31T10:01:29;98612.22;;;10.91;100.00
64827;BME280;51265;53.972;12.286;2023-10-31T10:03:56;98610.63;;;10.90;100.00
64827;BME280;51265;53.972;12.286;2023-10-31T10:06:22;98606.06;;;10.82;100.00
64827;BME280;51265;53.972;12.286;2023-10-31T10:08:50;98606.06;;;10.82;100.00
64827;BME280;51265;53.972;12.286;2023-10-31T10:11:16;98602.31;;;10.74;100.00
64827;BME280;51265;53.972;12.286;2023-10-31T10:13:43;98607.13;;;10.77;100.00
64827;BME280;51265;53.972;12.286;2023-10-31T10:16:09;98603.22;;;10.78;100.00
64827;BME280;51265;53.972;12.286;2023-10-31T10:18:36;98601.81;;;10.84;100.00
64827;BME280;51265;53.972;12.286;2023-10-31T10:21:07;98596.72;;;10.70;100.00
64827;BME280;51265;53.972;12.286;2023-10-31T10:23:34;98590.09;;;10.59;100.00
64827;BME280;51265;53.972;12.286;2023-10-31T10:26:01;98583.44;;;10.60;100.00
64827;BME280;51265;53.972;12.286;2023-10-31T10:28:28;98577.34;;;10.67;100.00
64827;BME280;51265;53.972;12.286;2023-10-31T10:30:59;98577.78;;;10.69;100.00
64827;BME280;51265;53.972;12.286;2023-10-31T10:33:25;98578.03;;;10.64;100.00
64827;BME280;51265;53.972;12.286;2023-10-31T10:35:54;98564.97;;;10.61;100.00
64827;BME280;51265;53.972;12.286;2023-10-31T10:38:21;98565.91;;;10.53;100.00
64827;BME280;51265;53.972;12.286;2023-10-31T10:40:48;98556.94;;;10.56;100.00
64827;BME280;51265;53.972;12.286;2023-10-31T10:43:23;98562.16;;;10.73;100.00
64827;BME280;51265;53.972;12.286;2023-10-31T10:45:54;98553.38;;;10.95;100.00
64827;BME280;51265;53.972;12.286;2023-10-31T10:48:23;98541.09;;;10.93;100.00
64827;BME280;51265;53.972;12.286;2023-10-31T10:51:05;98540.72;;;10.94;100.00
64827;BME280;51265;53.972;12.286;2023-10-31T10:54:05;98533.03;;;11.00;100.00
64827;BME280;51265;53.972;12.286;2023-10-31T10:56:43;98530.34;;;10.88;100.00
64827;BME280;51265;53.972;12.286;2023-10-31T10:59:20;98528.97;;;10.82;100.00
64827;BME280;51265;53.972;12.286;2023-10-31T11:01:47;98516.50;;;10.72;100.00
64827;BME280;51265;53.972;12.286;2023-10-31T11:04:15;98515.56;;;10.80;100.00
64827;BME280;51265;53.972;12.286;2023-10-31T11:06:43;98504.81;;;10.75;100.00
64827;BME280;51265;53.972;12.286;2023-10-31T11:09:10;98505.44;;;10.56;100.00
64827;BME280;51265;53.972;12.286;2023-10-31T11:11:38;98507.63;;;10.63;100.00
64827;BME280;51265;53.972;12.286;2023-10-31T11:14:06;98496.78;;;10.70;100.00
64827;BME280;51265;53.972;12.286;2023-10-31T11:16:39;98501.16;;;10.71;100.00
64827;BME280;51265;53.972;12.286;2023-10-31T11:19:11;98493.16;;;10.66;100.00
64827;BME280;51265;53.972;12.286;2023-10-31T11:21:58;98488.22;;;10.87;100.00
64827;BME280;51265;53.972;12.286;2023-10-31T11:24:31;98484.34;;;11.04;100.00
64827;BME280;51265;53.972;12.286;2023-10-31T11:27:00;98485.69;;;11.26;100.00
64827;BME280;51265;53.972;12.286;2023-10-31T11:29:27;98488.34;;;11.38;100.00
64827;BME280;51265;53.972;12.286;2023-10-31T11:31:54;98483.34;;;10.96;100.00
64827;BME280;51265;53.972;12.286;2023-10-31T11:34:23;98475.34;;;10.91;100.00
64827;BME280;51265;53.972;12.286;2023-10-31T11:36:50;98475.41;;;10.95;100.00
64827;BME280;51265;53.972;12.286;2023-10-31T11:39:21;98475.34;;;10.91;100.00
64827;BME280;51265;53.972;12.286;2023-10-31T11:41:55;98475.09;;;10.96;100.00
64827;BME280;51265;53.972;12.286;2023-10-31T11:44:28;98474.53;;;10.91;100.00
64827;BME280;51265;53.972;12.286;2023-10-31T11:46:58;98478.97;;;10.80;100.00
64827;BME280;51265;53.972;12.286;2023-10-31T11:49:46;98486.22;;;10.72;100.00
64827;BME280;51265;53.972;12.286;2023-10-31T11:52:17;98484.97;;;10.69;100.00
64827;BME280;51265;53.972;12.286;2023-10-31T11:54:44;98484.06;;;10.65;100.00
64827;BME280;51265;53.972;12.286;2023-10-31T11:57:10;98486.59;;;10.42;100.00
64827;BME280;51265;53.972;12.286;2023-10-31T11:59:39;98480.66;;;10.28;100.00
64827;BME280;51265;53.972;12.286;2023-10-31T12:02:15;98478.94;;;10.23;100.00
64827;BME280;51265;53.972;12.286;2023-10-31T12:04:42;98480.44;;;10.21;100.00
64827;BME280;51265;53.972;12.286;2023-10-31T12:07:09;98490.44;;;10.26;100.00
64827;BME280;51265;53.972;12.286;2023-10-31T12:09:48;98486.63;;;10.18;100.00
64827;BME280;51265;53.972;12.286;2023-10-31T12:12:14;98491.72;;;10.04;100.00
64827;BME280;51265;53.972;12.286;2023-10-31T12:14:41;98495.81;;;10.10;100.00
64827;BME280;51265;53.972;12.286;2023-10-31T12:17:07;98504.72;;;10.19;100.00
64827;BME280;51265;53.972;12.286;2023-10-31T12:19:36;98496.28;;;10.12;100.00
64827;BME280;51265;53.972;12.286;2023-10-31T12:22:12;98506.34;;;10.20;100.00
64827;BME280;51265;53.972;12.286;2023-10-31T12:24:39;98505.78;;;10.14;100.00
64827;BME280;51265;53.972;12.286;2023-10-31T12:27:05;98512.06;;;10.15;100.00
64827;BME280;51265;53.972;12.286;2023-10-31T12:29:31;98524.47;;;10.09;100.00
64827;BME280;51265;53.972;12.286;2023-10-31T12:31:57;98524.81;;;10.07;100.00
64827;BME280;51265;53.972;12.286;2023-10-31T12:34:24;98519.22;;;10.04;100.00
64827;BME280;51265;53.972;12.286;2023-10-31T12:36:52;98520.94;;;10.08;100.00
64827;BME280;51265;53.972;12.286;2023-10-31T12:39:23;98527.44;;;10.16;100.00
64827;BME280;51265;53.972;12.286;2023-10-31T12:41:50;98536.16;;;10.18;100.00
64827;BME280;51265;53.972;12.286;2023-10-31T12:44:23;98540.28;;;10.12;100.00
64827;BME280;51265;53.972;12.286;2023-10-31T12:46:51;98546.91;;;10.11;100.00
64827;BME280;51265;53.972;12.286;2023-10-31T12:49:19;98558.16;;;10.18;100.00
64827;BME280;51265;53.972;12.286;2023-10-31T12:51:58;98575.03;;;10.04;100.00
64827;BME280;51265;53.972;12.286;2023-10-31T12:54:32;98576.75;;;9.84;100.00
64827;BME280;51265;53.972;12.286;2023-10-31T12:57:09;98605.06;;;9.39;100.00
64827;BME280;51265;53.972;12.286;2023-10-31T12:59:37;98653.53;;;8.69;100.00